Time;durP1;ratioP1;P1;durP2;ratioP2;P2;SDS_P1;SDS_P2;PMS_P1;PMS_P2;Temp;Humidity;BMP_temperature;BMP_pressure;BME280_temperature;BME280_humidity;BME280_pressure;Samples;Min_cycle;Max_cycle;Signal;HPM_P1;HPM_P2
2023/09/15 00:00:47;;;;;;;2.00;0.97;;;14.40;92.60;;;;;;4993559;28;20470;-66
2023/09/15 00:03:15;;;;;;;5.63;2.10;;;14.40;92.50;;;;;;4995259;28;20481;-66
2023/09/15 00:05:42;;;;;;;2.53;1.63;;;14.30;92.90;;;;;;4996097;28;20485;-65
2023/09/15 00:08:09;;;;;;;1.87;1.20;;;14.20;93.00;;;;;;4994178;28;20477;-66
2023/09/15 00:10:40;;;;;;;2.07;1.20;;;14.20;93.20;;;;;;4992558;28;20500;-65
2023/09/15 00:13:08;;;;;;;3.40;1.93;;;14.20;93.10;;;;;;4993906;28;20526;-66
2023/09/15 00:15:35;;;;;;;3.53;1.77;;;14.20;93.30;;;;;;4992536;28;20493;-66
2023/09/15 00:18:02;;;;;;;2.73;1.33;;;14.20;93.40;;;;;;4992888;28;20868;-66
2023/09/15 00:20:30;;;;;;;7.70;1.83;;;13.90;93.40;;;;;;4992430;28;21059;-66
2023/09/15 00:22:56;;;;;;;3.63;1.83;;;13.90;93.40;;;;;;4996988;28;20489;-65
2023/09/15 00:25:25;;;;;;;2.57;1.13;;;13.90;93.30;;;;;;4994703;28;20522;-65
2023/09/15 00:27:54;;;;;;;2.83;1.57;;;13.90;93.30;;;;;;4990945;28;20616;-66
2023/09/15 00:30:24;;;;;;;2.70;1.77;;;13.90;93.20;;;;;;4992764;28;20482;-66
2023/09/15 00:32:51;;;;;;;2.33;1.57;;;13.80;93.30;;;;;;4980565;28;20481;-66
2023/09/15 00:35:20;;;;;;;5.50;1.63;;;13.90;93.50;;;;;;4993394;28;20897;-66
2023/09/15 00:37:49;;;;;;;3.50;1.67;;;13.90;93.80;;;;;;4995895;28;20473;-66
2023/09/15 00:40:17;;;;;;;2.67;1.70;;;14.00;93.70;;;;;;4991781;28;20479;-65
2023/09/15 00:42:44;;;;;;;2.57;1.23;;;14.00;93.30;;;;;;4994736;28;20879;-67
2023/09/15 00:45:14;;;;;;;3.50;1.63;;;13.90;93.30;;;;;;4994583;28;20481;-67
2023/09/15 00:47:46;;;;;;;3.20;1.60;;;13.80;93.00;;;;;;4992388;28;20534;-67
2023/09/15 00:50:14;;;;;;;1.80;1.00;;;13.80;93.10;;;;;;4990686;28;20483;-67
2023/09/15 00:52:43;;;;;;;3.73;1.63;;;13.70;93.30;;;;;;4993373;28;21160;-67
2023/09/15 00:55:11;;;;;;;2.37;1.30;;;13.80;93.50;;;;;;4993503;28;20874;-67
2023/09/15 00:57:38;;;;;;;2.57;1.37;;;13.80;93.30;;;;;;4985391;28;20572;-67
2023/09/15 01:00:11;;;;;;;5.90;1.57;;;13.80;93.20;;;;;;4981639;28;21162;-67
2023/09/15 01:02:39;;;;;;;3.10;1.77;;;13.70;93.10;;;;;;4985640;28;20528;-67
2023/09/15 01:05:08;;;;;;;2.20;1.20;;;13.60;93.40;;;;;;4985200;28;20493;-67
2023/09/15 01:07:37;;;;;;;2.17;1.13;;;13.60;93.30;;;;;;4978070;28;20481;-67
2023/09/15 01:10:05;;;;;;;2.40;1.50;;;13.60;93.20;;;;;;4992886;28;20564;-67
2023/09/15 01:12:33;;;;;;;2.73;2.23;;;13.50;93.40;;;;;;4979636;28;21103;-66
2023/09/15 01:15:00;;;;;;;3.90;1.83;;;13.40;93.40;;;;;;4988427;28;20492;-66
2023/09/15 01:17:33;;;;;;;2.30;1.43;;;13.40;93.40;;;;;;4994900;28;20477;-67
2023/09/15 01:20:09;;;;;;;2.87;1.30;;;13.30;93.10;;;;;;4981810;28;20841;-67
2023/09/15 01:23:11;;;;;;;2.83;1.47;;;13.30;93.50;;;;;;4991082;28;20485;-66
2023/09/15 01:26:11;;;;;;;2.63;1.53;;;13.30;93.30;;;;;;4986930;28;20486;-67
2023/09/15 01:29:03;;;;;;;2.80;1.63;;;13.30;93.60;;;;;;4948306;28;21008;-67
2023/09/15 01:31:31;;;;;;;3.07;1.30;;;13.30;93.80;;;;;;4972068;28;20971;-67
2023/09/15 01:33:58;;;;;;;2.40;1.50;;;13.30;93.90;;;;;;5003042;28;20833;-67
2023/09/15 01:36:25;;;;;;;2.67;1.47;;;13.30;93.80;;;;;;4984287;28;20473;-66
2023/09/15 01:38:52;;;;;;;3.13;1.70;;;13.40;93.70;;;;;;4988300;28;20488;-67
2023/09/15 01:41:19;;;;;;;2.30;1.33;;;13.30;93.50;;;;;;4989149;28;21027;-67
2023/09/15 01:43:46;;;;;;;2.70;1.60;;;13.20;93.30;;;;;;4995137;28;20893;-66
2023/09/15 01:46:13;;;;;;;5.80;1.80;;;13.20;93.20;;;;;;4987287;28;20490;-66
2023/09/15 01:48:41;;;;;;;2.17;1.00;;;13.10;93.20;;;;;;4978316;28;21016;-65
2023/09/15 01:51:09;;;;;;;2.20;0.80;;;13.00;93.20;;;;;;4983575;28;20501;-66
2023/09/15 01:53:36;;;;;;;2.27;1.63;;;12.80;93.60;;;;;;4995849;28;20485;-66
2023/09/15 01:56:03;;;;;;;2.20;1.70;;;12.80;93.60;;;;;;4988090;28;20478;-66
2023/09/15 01:58:30;;;;;;;5.43;1.73;;;12.80;93.50;;;;;;4985002;28;20473;-65
2023/09/15 02:00:57;;;;;;;2.73;1.30;;;12.90;93.70;;;;;;4991078;28;20477;-66
2023/09/15 02:03:24;;;;;;;2.33;1.33;;;12.90;93.80;;;;;;4992049;28;20563;-66
2023/09/15 02:05:52;;;;;;;2.10;1.37;;;12.90;93.70;;;;;;4980379;28;20473;-65
2023/09/15 02:08:18;;;;;;;3.10;1.63;;;12.90;93.50;;;;;;4983760;28;20515;-65
2023/09/15 02:10:45;;;;;;;2.00;1.17;;;12.90;93.60;;;;;;4993165;28;20491;-66
2023/09/15 02:13:12;;;;;;;5.33;1.37;;;12.90;93.30;;;;;;4986700;28;20496;-65
2023/09/15 02:15:39;;;;;;;1.87;1.00;;;12.80;93.20;;;;;;4990682;28;20483;-66
2023/09/15 02:18:06;;;;;;;2.67;1.23;;;12.80;93.20;;;;;;4985061;28;21223;-66
2023/09/15 02:20:33;;;;;;;2.13;1.03;;;12.70;93.40;;;;;;4988853;28;20493;-66
2023/09/15 02:23:03;;;;;;;3.87;1.87;;;12.70;93.30;;;;;;4985017;28;20819;-65
2023/09/15 02:25:30;;;;;;;2.77;1.70;;;12.70;93.50;;;;;;4980758;28;20476;-66
2023/09/15 02:27:57;;;;;;;4.17;1.50;;;12.70;93.50;;;;;;4985195;28;20516;-66
2023/09/15 02:30:24;;;;;;;1.83;1.23;;;12.70;93.40;;;;;;4987424;28;20822;-65
2023/09/15 02:32:50;;;;;;;2.40;1.40;;;12.70;93.40;;;;;;4984887;28;20481;-65
2023/09/15 02:35:19;;;;;;;6.83;1.60;;;12.70;93.20;;;;;;4986225;28;20499;-66
2023/09/15 02:37:45;;;;;;;4.63;2.00;;;12.60;93.40;;;;;;4988017;28;21008;-66
2023/09/15 02:40:15;;;;;;;2.80;1.37;;;12.60;93.30;;;;;;4993674;28;20491;-66
2023/09/15 02:42:42;;;;;;;11.53;1.70;;;12.50;93.20;;;;;;4991026;28;20488;-66
2023/09/15 02:45:09;;;;;;;4.43;1.73;;;12.50;93.10;;;;;;4999514;28;20479;-66
2023/09/15 02:47:36;;;;;;;1.93;1.17;;;12.50;93.30;;;;;;4994447;28;20866;-66
2023/09/15 02:50:03;;;;;;;3.00;1.63;;;12.50;93.40;;;;;;5001292;28;21005;-66
2023/09/15 02:52:31;;;;;;;2.47;1.57;;;12.40;93.40;;;;;;4994105;28;20475;-66
2023/09/15 02:54:57;;;;;;;5.43;1.53;;;12.30;93.30;;;;;;4992008;28;20501;-65
2023/09/15 02:57:25;;;;;;;2.93;1.60;;;12.20;93.70;;;;;;4992625;28;20479;-65
2023/09/15 02:59:53;;;;;;;3.00;1.50;;;12.00;94.20;;;;;;4993847;28;20546;-65
2023/09/15 03:02:21;;;;;;;2.20;1.10;;;11.90;94.30;;;;;;4989999;28;20485;-65
2023/09/15 03:04:48;;;;;;;1.80;1.10;;;12.00;94.10;;;;;;4991653;28;20504;-67
2023/09/15 03:07:15;;;;;;;4.67;2.30;;;12.00;94.10;;;;;;4986051;28;20493;-66
2023/09/15 03:09:43;;;;;;;6.73;1.70;;;12.10;94.00;;;;;;4986069;28;20488;-66
2023/09/15 03:12:09;;;;;;;2.00;1.40;;;12.10;94.00;;;;;;4996323;28;21017;-66
2023/09/15 03:14:39;;;;;;;7.10;1.87;;;12.00;94.10;;;;;;4997252;28;21099;-65
2023/09/15 03:17:07;;;;;;;3.40;1.70;;;11.90;94.20;;;;;;4987988;28;20484;-65
2023/09/15 03:19:35;;;;;;;2.80;1.60;;;11.80;94.30;;;;;;4987906;28;20827;-65
2023/09/15 03:22:01;;;;;;;2.40;1.50;;;11.80;94.10;;;;;;4992543;28;21253;-65
2023/09/15 03:24:28;;;;;;;2.87;1.47;;;11.80;94.20;;;;;;4990964;28;20858;-65
2023/09/15 03:26:55;;;;;;;2.10;1.30;;;11.80;94.00;;;;;;4990044;28;20488;-65
2023/09/15 03:29:21;;;;;;;2.20;1.30;;;11.70;94.10;;;;;;4993951;28;21005;-65
2023/09/15 03:31:49;;;;;;;3.03;1.97;;;11.70;94.20;;;;;;4992177;28;20491;-66
2023/09/15 03:34:16;;;;;;;1.90;1.30;;;11.70;94.20;;;;;;4990315;28;20851;-66
2023/09/15 03:36:43;;;;;;;6.23;1.50;;;11.70;94.00;;;;;;4990556;28;20843;-66
2023/09/15 03:39:10;;;;;;;2.40;1.33;;;11.80;94.00;;;;;;4979978;28;20901;-65
2023/09/15 03:41:37;;;;;;;3.40;1.83;;;11.80;94.20;;;;;;4981234;28;20478;-65
2023/09/15 03:44:04;;;;;;;3.63;1.77;;;11.80;93.90;;;;;;4984543;28;20486;-65
2023/09/15 03:46:32;;;;;;;2.40;1.23;;;11.80;93.80;;;;;;5006694;28;20621;-65
2023/09/15 03:49:03;;;;;;;2.00;1.23;;;11.80;93.80;;;;;;4986385;28;20977;-66
2023/09/15 03:51:30;;;;;;;2.60;1.20;;;11.80;93.90;;;;;;4974168;28;21220;-66
2023/09/15 03:53:56;;;;;;;2.20;1.20;;;11.80;93.90;;;;;;5000444;28;21065;-65
2023/09/15 03:56:24;;;;;;;2.70;1.23;;;11.80;93.80;;;;;;4989597;28;20486;-66
2023/09/15 03:58:51;;;;;;;2.40;1.40;;;11.90;93.90;;;;;;4991138;28;20531;-65
2023/09/15 04:01:22;;;;;;;4.33;1.70;;;11.80;93.80;;;;;;4994180;28;20547;-65
2023/09/15 04:03:48;;;;;;;3.90;1.53;;;11.90;93.80;;;;;;4993893;28;20998;-66
2023/09/15 04:06:17;;;;;;;2.80;1.67;;;11.80;93.60;;;;;;4984914;28;21059;-66
2023/09/15 04:08:43;;;;;;;2.30;1.27;;;11.80;93.70;;;;;;4981783;28;20501;-66
2023/09/15 04:11:10;;;;;;;2.10;1.10;;;11.80;93.40;;;;;;4989367;28;20484;-67
2023/09/15 04:13:37;;;;;;;2.27;1.20;;;11.80;93.40;;;;;;4991761;28;20483;-67
2023/09/15 04:16:04;;;;;;;2.90;1.40;;;11.80;93.60;;;;;;4993116;28;20473;-67
2023/09/15 04:18:31;;;;;;;3.40;1.50;;;11.80;93.70;;;;;;4992196;28;20483;-66
2023/09/15 04:20:59;;;;;;;2.77;1.20;;;11.80;93.50;;;;;;4976726;28;20802;-67
2023/09/15 04:23:27;;;;;;;2.30;1.27;;;11.80;93.60;;;;;;4994532;28;20554;-67
2023/09/15 04:25:54;;;;;;;2.10;1.30;;;11.80;93.50;;;;;;4983926;28;20486;-67
2023/09/15 04:28:21;;;;;;;2.33;1.50;;;11.80;93.50;;;;;;4988236;28;20703;-66
2023/09/15 04:30:48;;;;;;;3.40;1.10;;;11.80;93.70;;;;;;4978869;28;20483;-67
2023/09/15 04:33:15;;;;;;;2.77;1.40;;;11.80;93.60;;;;;;4991914;28;20905;-66
2023/09/15 04:35:42;;;;;;;2.50;1.43;;;11.80;93.50;;;;;;4987273;28;20484;-67
2023/09/15 04:38:09;;;;;;;3.50;1.63;;;11.80;93.40;;;;;;4993701;28;20485;-67
2023/09/15 04:40:37;;;;;;;5.80;2.13;;;11.80;93.40;;;;;;4989229;28;20518;-67
2023/09/15 04:43:04;;;;;;;4.57;1.67;;;11.80;93.70;;;;;;4992825;28;20577;-67
2023/09/15 04:45:31;;;;;;;2.43;1.60;;;11.70;93.50;;;;;;4984275;28;20542;-67
2023/09/15 04:47:58;;;;;;;2.83;1.70;;;11.70;93.40;;;;;;4986899;28;20471;-67
2023/09/15 04:50:24;;;;;;;5.00;2.10;;;11.70;93.20;;;;;;4987136;28;20980;-66
2023/09/15 04:52:52;;;;;;;3.23;1.40;;;11.60;93.20;;;;;;4989863;28;20836;-67
2023/09/15 04:55:20;;;;;;;2.87;1.50;;;11.60;93.30;;;;;;4988724;28;20581;-66
2023/09/15 04:57:48;;;;;;;2.37;1.40;;;11.60;93.50;;;;;;4988282;28;20527;-66
2023/09/15 05:00:23;;;;;;;2.07;0.80;;;11.60;93.80;;;;;;4979939;28;20488;-66
2023/09/15 05:02:50;;;;;;;5.00;1.10;;;11.60;93.90;;;;;;4985893;28;20479;-67
2023/09/15 05:05:17;;;;;;;2.90;1.10;;;11.60;93.70;;;;;;4987203;28;20605;-67
2023/09/15 05:07:43;;;;;;;2.10;1.20;;;11.60;93.80;;;;;;4991031;28;20484;-67
2023/09/15 05:10:11;;;;;;;6.20;1.63;;;11.60;93.80;;;;;;4995351;28;20853;-66
2023/09/15 05:12:38;;;;;;;2.20;1.50;;;11.60;93.80;;;;;;4996345;28;20484;-66
2023/09/15 05:15:07;;;;;;;1.90;1.00;;;11.60;93.70;;;;;;4986619;28;20897;-65
2023/09/15 05:17:35;;;;;;;2.50;1.33;;;11.70;93.70;;;;;;5000837;28;20705;-66
2023/09/15 05:20:01;;;;;;;3.07;1.27;;;11.70;93.70;;;;;;4997608;28;20476;-66
2023/09/15 05:22:28;;;;;;;3.70;1.87;;;11.70;94.00;;;;;;4988085;28;20482;-66
2023/09/15 05:24:55;;;;;;;8.90;2.03;;;11.70;94.40;;;;;;4994233;28;20477;-67
2023/09/15 05:27:22;;;;;;;2.70;1.30;;;11.80;94.60;;;;;;4990530;28;20483;-67
2023/09/15 05:29:50;;;;;;;3.83;1.33;;;11.80;94.30;;;;;;4988457;28;20489;-67
2023/09/15 05:32:18;;;;;;;2.43;1.57;;;11.90;94.00;;;;;;4984582;28;20482;-67
2023/09/15 05:34:45;;;;;;;3.17;1.33;;;12.00;94.00;;;;;;4979290;28;20486;-67
2023/09/15 05:37:12;;;;;;;3.90;1.53;;;12.00;94.20;;;;;;4987943;28;20492;-67
2023/09/15 05:39:38;;;;;;;10.30;2.10;;;12.00;94.10;;;;;;4993103;28;20479;-67
2023/09/15 05:42:05;;;;;;;3.13;1.37;;;12.10;94.10;;;;;;4991452;28;20470;-67
2023/09/15 05:44:32;;;;;;;3.07;1.27;;;12.10;94.10;;;;;;4984748;28;20491;-67
2023/09/15 05:47:00;;;;;;;2.37;1.53;;;12.20;94.00;;;;;;4986605;28;20842;-67
2023/09/15 05:49:28;;;;;;;2.00;1.10;;;12.20;94.00;;;;;;4978526;28;20495;-67
2023/09/15 05:51:54;;;;;;;5.67;1.40;;;12.20;94.00;;;;;;4985935;28;20919;-67
2023/09/15 05:54:21;;;;;;;2.67;1.50;;;12.20;94.00;;;;;;4985845;28;20481;-67
2023/09/15 05:56:48;;;;;;;2.30;1.33;;;12.20;94.20;;;;;;4987904;28;20869;-67
2023/09/15 05:59:15;;;;;;;2.60;1.20;;;12.30;94.20;;;;;;4986089;28;20485;-67
2023/09/15 06:01:46;;;;;;;2.30;1.47;;;12.30;94.60;;;;;;4981191;28;20489;-67
2023/09/15 06:04:13;;;;;;;2.03;1.20;;;12.40;94.80;;;;;;4989381;28;20487;-67
2023/09/15 06:06:41;;;;;;;3.13;1.80;;;12.50;94.90;;;;;;4994051;28;20592;-67
2023/09/15 06:09:08;;;;;;;2.63;1.80;;;12.50;95.00;;;;;;4980008;28;20475;-67
2023/09/15 06:11:35;;;;;;;4.10;1.97;;;12.60;95.20;;;;;;4984716;28;20913;-67
2023/09/15 06:14:02;;;;;;;3.63;2.10;;;12.70;95.30;;;;;;4995500;28;20766;-67
2023/09/15 06:16:29;;;;;;;3.73;2.03;;;12.90;95.50;;;;;;4986257;28;20482;-68
2023/09/15 06:18:55;;;;;;;4.20;1.90;;;13.10;95.80;;;;;;4987913;28;20698;-68
2023/09/15 06:21:22;;;;;;;3.73;2.33;;;13.40;95.90;;;;;;4993200;28;20497;-67
2023/09/15 06:23:50;;;;;;;5.10;2.37;;;14.00;96.20;;;;;;4987365;28;20490;-66
2023/09/15 06:26:17;;;;;;;6.27;2.73;;;14.80;96.10;;;;;;4981949;28;21011;-66
2023/09/15 06:28:43;;;;;;;3.70;2.90;;;15.50;95.40;;;;;;4990612;28;20486;-66
2023/09/15 06:31:10;;;;;;;2.80;2.47;;;15.90;94.60;;;;;;4991971;28;20492;-66
2023/09/15 06:33:37;;;;;;;4.60;3.40;;;16.30;94.40;;;;;;5002260;28;20490;-67
2023/09/15 06:36:04;;;;;;;6.97;3.40;;;16.90;94.60;;;;;;4988379;28;20898;-67
2023/09/15 06:38:32;;;;;;;4.73;3.60;;;17.60;94.40;;;;;;4980289;28;20513;-68
2023/09/15 06:41:00;;;;;;;4.80;3.20;;;18.30;93.80;;;;;;4990467;28;20571;-68
2023/09/15 06:43:27;;;;;;;6.77;2.77;;;19.00;92.90;;;;;;4999756;28;20872;-67
2023/09/15 06:45:54;;;;;;;3.53;2.63;;;19.60;92.30;;;;;;4989380;28;20713;-68
2023/09/15 06:48:20;;;;;;;3.10;2.70;;;20.40;91.80;;;;;;4977862;28;20481;-68
2023/09/15 06:50:47;;;;;;;2.30;1.83;;;21.30;90.60;;;;;;4983910;28;20489;-68
2023/09/15 06:53:14;;;;;;;4.60;2.57;;;22.10;89.50;;;;;;4985691;28;20483;-67
2023/09/15 06:55:40;;;;;;;3.30;2.33;;;22.80;87.80;;;;;;4981372;28;20815;-67
2023/09/15 06:58:08;;;;;;;3.23;2.10;;;23.50;86.60;;;;;;4983524;28;20485;-67
2023/09/15 07:00:35;;;;;;;10.10;2.70;;;24.10;85.10;;;;;;4979750;28;20481;-68
2023/09/15 07:03:02;;;;;;;3.50;2.67;;;24.70;84.00;;;;;;4981691;28;20474;-67
2023/09/15 07:05:29;;;;;;;4.33;2.80;;;25.20;83.50;;;;;;4992246;28;20492;-68
2023/09/15 07:07:55;;;;;;;2.70;1.70;;;25.50;82.10;;;;;;4986264;28;20483;-68
2023/09/15 07:10:22;;;;;;;4.23;2.87;;;25.90;81.80;;;;;;4987509;28;20486;-68
2023/09/15 07:12:49;;;;;;;4.90;2.60;;;26.10;80.50;;;;;;4986284;28;20470;-68
2023/09/15 07:15:17;;;;;;;6.40;2.23;;;26.30;81.70;;;;;;4979959;28;20475;-67
2023/09/15 07:17:44;;;;;;;4.10;2.57;;;26.50;80.40;;;;;;4988348;28;20972;-68
2023/09/15 07:20:11;;;;;;;3.53;2.97;;;26.60;79.90;;;;;;4991196;28;20484;-67
2023/09/15 07:22:40;;;;;;;3.97;2.60;;;26.70;80.40;;;;;;4989598;28;20501;-68
2023/09/15 07:25:07;;;;;;;3.83;1.60;;;26.60;80.20;;;;;;5004798;28;21067;-68
2023/09/15 07:27:34;;;;;;;6.93;2.60;;;26.60;79.50;;;;;;4989744;28;20852;-68
2023/09/15 07:30:00;;;;;;;2.87;2.43;;;26.40;80.20;;;;;;4987696;28;20500;-68
2023/09/15 07:32:29;;;;;;;2.77;1.73;;;26.30;79.70;;;;;;4990257;28;20477;-68
2023/09/15 07:34:56;;;;;;;3.50;2.30;;;26.10;80.50;;;;;;4999354;28;20489;-67
2023/09/15 07:37:22;;;;;;;3.00;2.00;;;25.90;80.20;;;;;;4990675;28;20485;-66
2023/09/15 07:39:49;;;;;;;2.70;2.13;;;25.70;81.20;;;;;;4989394;28;20495;-66
2023/09/15 07:42:16;;;;;;;3.70;2.33;;;25.50;81.70;;;;;;5000931;28;20477;-66
2023/09/15 07:44:42;;;;;;;4.80;2.10;;;25.30;83.10;;;;;;4986824;28;20506;-67
2023/09/15 07:47:12;;;;;;;3.50;2.00;;;25.20;82.10;;;;;;4989531;28;20501;-68
2023/09/15 07:49:40;;;;;;;3.23;1.80;;;25.00;83.60;;;;;;5000686;28;20476;-68
2023/09/15 07:52:07;;;;;;;2.90;1.90;;;24.80;83.60;;;;;;4994848;28;20483;-67
2023/09/15 07:54:33;;;;;;;4.90;2.67;;;24.70;85.00;;;;;;4999832;28;20487;-68
2023/09/15 07:57:00;;;;;;;10.40;2.40;;;24.60;83.70;;;;;;4984109;28;21043;-68
2023/09/15 07:59:27;;;;;;;3.43;1.80;;;24.40;84.50;;;;;;4983571;28;20486;-68
2023/09/15 08:01:54;;;;;;;5.03;2.13;;;24.40;84.30;;;;;;4996304;28;20491;-68
2023/09/15 08:04:20;;;;;;;5.30;2.27;;;24.30;86.20;;;;;;4992740;28;20478;-68
2023/09/15 08:06:49;;;;;;;3.70;2.10;;;24.30;85.40;;;;;;4985260;28;20858;-67
2023/09/15 08:09:16;;;;;;;4.63;2.10;;;24.20;85.50;;;;;;4993216;28;20685;-68
2023/09/15 08:11:43;;;;;;;4.97;2.40;;;24.20;86.30;;;;;;4988674;28;20477;-67
2023/09/15 08:14:09;;;;;;;6.40;2.40;;;24.20;85.90;;;;;;4994587;28;20473;-68
2023/09/15 08:16:36;;;;;;;6.43;2.23;;;24.20;86.00;;;;;;4994298;28;20939;-67
2023/09/15 08:19:03;;;;;;;2.53;1.60;;;24.20;87.00;;;;;;4992704;28;20461;-68
2023/09/15 08:21:30;;;;;;;4.70;2.60;;;24.30;86.80;;;;;;4998125;28;20471;-67
2023/09/15 08:23:58;;;;;;;6.43;2.20;;;24.30;86.50;;;;;;4991634;28;20481;-68
2023/09/15 08:26:26;;;;;;;7.37;2.37;;;24.30;86.40;;;;;;4988686;28;20974;-67
2023/09/15 08:28:53;;;;;;;4.20;2.33;;;24.30;87.10;;;;;;4991510;28;20490;-68
2023/09/15 08:31:19;;;;;;;3.47;2.50;;;24.40;88.00;;;;;;4984196;28;20498;-67
2023/09/15 08:33:46;;;;;;;4.03;2.37;;;24.40;87.90;;;;;;4987797;28;20477;-67
2023/09/15 08:36:13;;;;;;;5.33;2.00;;;24.50;86.80;;;;;;4986380;28;20482;-68
2023/09/15 08:38:39;;;;;;;3.33;2.67;;;24.60;87.40;;;;;;4982877;28;20478;-68
2023/09/15 08:41:25;;;;;;;3.00;2.43;;;24.70;87.80;;;;;;4994480;28;20483;-68
2023/09/15 08:43:52;;;;;;;3.07;1.63;;;24.80;86.80;;;;;;4977769;28;20481;-68
2023/09/15 08:46:20;;;;;;;2.93;2.03;;;24.90;86.30;;;;;;4985809;28;20543;-67
2023/09/15 08:48:51;;;;;;;3.73;2.07;;;25.00;87.90;;;;;;4984632;28;20483;-68
2023/09/15 08:51:19;;;;;;;3.00;1.97;;;25.10;85.80;;;;;;4983279;28;21017;-68
2023/09/15 08:53:47;;;;;;;4.30;2.10;;;25.10;88.00;;;;;;5002689;28;20477;-68
2023/09/15 08:56:16;;;;;;;3.10;2.13;;;25.30;87.60;;;;;;4988562;28;20730;-68
2023/09/15 08:58:43;;;;;;;4.00;2.37;;;25.30;86.90;;;;;;4991618;28;20486;-68
2023/09/15 09:01:10;;;;;;;3.57;2.40;;;25.30;86.10;;;;;;4969649;28;20475;-68
2023/09/15 09:03:38;;;;;;;3.43;2.53;;;25.40;86.00;;;;;;4989535;28;20497;-68
2023/09/15 09:06:10;;;;;;;11.60;2.70;;;25.50;87.40;;;;;;4980246;28;20736;-68
2023/09/15 09:08:38;;;;;;;3.30;2.40;;;25.50;86.20;;;;;;4992991;28;20552;-68
2023/09/15 09:11:05;;;;;;;5.53;3.00;;;25.60;86.00;;;;;;4983467;28;20467;-67
2023/09/15 09:13:34;;;;;;;4.27;3.20;;;25.60;86.40;;;;;;4986439;28;20486;-68
2023/09/15 09:16:02;;;;;;;6.13;2.50;;;25.60;86.90;;;;;;4996305;28;21008;-68
2023/09/15 09:18:29;;;;;;;3.40;2.77;;;25.60;87.00;;;;;;4988531;28;20486;-68
2023/09/15 09:20:56;;;;;;;5.13;3.70;;;25.70;86.10;;;;;;4981390;28;20486;-68
2023/09/15 09:23:22;;;;;;;6.97;2.10;;;25.80;87.50;;;;;;4988030;28;20494;-67
2023/09/15 09:25:49;;;;;;;5.10;2.60;;;26.00;87.10;;;;;;4993744;28;21260;-68
2023/09/15 09:28:16;;;;;;;4.83;2.23;;;26.10;85.30;;;;;;4989064;28;20489;-67
2023/09/15 09:30:44;;;;;;;2.30;1.83;;;26.20;86.70;;;;;;4983302;28;20490;-68
2023/09/15 09:33:12;;;;;;;4.63;2.30;;;26.20;86.90;;;;;;4986739;28;20485;-68
2023/09/15 09:35:39;;;;;;;4.63;2.77;;;26.30;86.40;;;;;;4991283;28;20461;-68
2023/09/15 09:38:06;;;;;;;5.10;2.80;;;26.40;86.20;;;;;;4996171;28;20839;-68
2023/09/15 09:40:33;;;;;;;6.37;2.50;;;26.40;85.60;;;;;;4989174;28;20833;-68
2023/09/15 09:43:00;;;;;;;2.77;2.47;;;26.60;86.20;;;;;;4987698;28;20472;-68
2023/09/15 09:45:27;;;;;;;2.73;1.73;;;26.60;84.90;;;;;;4993820;28;20517;-68
2023/09/15 09:47:56;;;;;;;3.67;2.53;;;26.50;86.70;;;;;;4995456;28;20481;-68
2023/09/15 09:50:23;;;;;;;2.77;2.30;;;26.60;86.80;;;;;;4987318;28;20477;-68
2023/09/15 09:52:51;;;;;;;6.93;2.57;;;26.70;86.20;;;;;;4985587;28;20477;-67
2023/09/15 09:55:18;;;;;;;3.30;2.60;;;26.80;85.40;;;;;;4993366;28;20519;-67
2023/09/15 09:57:45;;;;;;;4.93;2.80;;;26.90;84.80;;;;;;4994477;28;20488;-66
2023/09/15 10:00:18;;;;;;;4.80;2.70;;;27.00;85.60;;;;;;4978380;28;20901;-67
2023/09/15 10:02:45;;;;;;;3.87;2.57;;;27.00;84.30;;;;;;4991303;28;20461;-67
2023/09/15 10:05:13;;;;;;;5.00;2.10;;;27.10;86.00;;;;;;4998911;28;20479;-67
2023/09/15 10:07:40;;;;;;;3.17;2.63;;;27.30;86.50;;;;;;4990444;28;21126;-67
2023/09/15 10:10:08;;;;;;;2.80;2.33;;;27.40;87.00;;;;;;4981019;28;20482;-67
2023/09/15 10:12:36;;;;;;;2.90;2.17;;;27.50;85.70;;;;;;4981207;28;20502;-67
2023/09/15 10:15:04;;;;;;;5.60;2.30;;;27.30;83.90;;;;;;4991798;28;20481;-67
2023/09/15 10:17:32;;;;;;;2.57;2.37;;;27.40;85.30;;;;;;4989412;28;20901;-67
2023/09/15 10:19:59;;;;;;;3.20;2.37;;;27.50;86.20;;;;;;4983820;28;20461;-66
2023/09/15 10:22:28;;;;;;;5.73;2.47;;;27.70;84.40;;;;;;4991160;28;20535;-66
2023/09/15 10:24:57;;;;;;;7.13;2.43;;;27.90;84.40;;;;;;4994761;28;20480;-66
2023/09/15 10:27:25;;;;;;;3.33;2.40;;;28.00;84.80;;;;;;4986446;28;20875;-66
2023/09/15 10:29:52;;;;;;;7.03;2.60;;;28.20;86.10;;;;;;4981637;28;20457;-66
2023/09/15 10:32:19;;;;;;;2.90;2.00;;;28.30;85.20;;;;;;4981841;28;20489;-66
2023/09/15 10:34:47;;;;;;;3.47;2.77;;;28.40;85.40;;;;;;4988300;28;20843;-66
2023/09/15 10:37:14;;;;;;;3.83;2.57;;;28.50;83.60;;;;;;4985006;28;20479;-66
2023/09/15 10:39:42;;;;;;;4.20;3.40;;;28.70;84.30;;;;;;4985737;28;20889;-67
2023/09/15 10:42:13;;;;;;;4.20;2.87;;;28.80;85.70;;;;;;4988768;28;20869;-66
2023/09/15 10:44:40;;;;;;;6.47;3.40;;;29.00;83.40;;;;;;4987184;28;20469;-66
2023/09/15 10:47:16;;;;;;;3.83;2.43;;;29.00;81.00;;;;;;4986648;28;21032;-66
2023/09/15 10:49:53;;;;;;;5.03;3.10;;;29.00;85.60;;;;;;4975797;28;20468;-66
2023/09/15 10:52:32;;;;;;;3.70;2.90;;;28.80;82.20;;;;;;4981017;28;20488;-67
2023/09/15 10:55:00;;;;;;;5.30;3.00;;;28.90;80.80;;;;;;4985177;28;20562;-66
2023/09/15 10:57:28;;;;;;;4.03;2.87;;;29.00;83.90;;;;;;4979527;28;20944;-66
2023/09/15 10:59:56;;;;;;;3.23;2.40;;;29.00;85.70;;;;;;4983655;28;20457;-66
2023/09/15 11:02:25;;;;;;;5.00;3.07;;;29.20;84.20;;;;;;4993456;28;20460;-66
2023/09/15 11:04:52;;;;;;;3.70;3.30;;;29.20;83.40;;;;;;4995255;28;20484;-66
2023/09/15 11:07:20;;;;;;;4.30;3.60;;;29.40;83.70;;;;;;4987741;28;20655;-66
2023/09/15 11:09:47;;;;;;;4.40;3.73;;;29.40;83.90;;;;;;4989908;28;20470;-66
2023/09/15 11:12:15;;;;;;;7.50;3.60;;;29.60;82.60;;;;;;4948428;28;1080509;-66
2023/09/15 11:14:42;;;;;;;4.30;3.27;;;29.70;82.10;;;;;;4990832;28;20246;-67
2023/09/15 11:17:08;;;;;;;4.00;3.60;;;29.70;82.40;;;;;;5005813;28;20455;-69
2023/09/15 11:19:37;;;;;;;6.33;4.67;;;29.80;82.40;;;;;;4990301;28;20464;-67
2023/09/15 11:22:04;;;;;;;5.47;4.20;;;29.50;79.80;;;;;;4980375;28;20477;-67
2023/09/15 11:24:33;;;;;;;5.53;4.13;;;29.30;81.50;;;;;;4994237;28;20472;-66
2023/09/15 11:27:01;;;;;;;4.80;4.10;;;29.30;83.00;;;;;;4991976;28;20476;-66
2023/09/15 11:29:31;;;;;;;4.70;3.90;;;29.00;80.10;;;;;;4990733;28;20468;-66
2023/09/15 11:31:59;;;;;;;4.10;3.70;;;29.30;84.00;;;;;;4991569;28;20456;-66
2023/09/15 11:34:26;;;;;;;5.70;4.20;;;29.40;83.10;;;;;;4993703;28;20477;-66
2023/09/15 11:36:59;;;;;;;6.27;4.30;;;29.60;83.40;;;;;;4992280;28;21578;-65
2023/09/15 11:39:28;;;;;;;5.63;4.20;;;29.40;79.60;;;;;;4997000;28;20459;-66
2023/09/15 11:41:55;;;;;;;3.23;2.93;;;29.10;82.50;;;;;;4990373;28;20468;-66
2023/09/15 11:44:24;;;;;;;4.00;3.60;;;29.10;83.40;;;;;;4990941;28;20468;-65
2023/09/15 11:46:55;;;;;;;7.90;4.17;;;28.90;81.50;;;;;;4992713;28;20459;-65
2023/09/15 11:49:23;;;;;;;5.07;3.80;;;28.90;81.00;;;;;;4994562;28;20715;-65
2023/09/15 11:51:51;;;;;;;3.80;3.47;;;29.30;85.50;;;;;;4999033;28;20569;-65
2023/09/15 11:54:18;;;;;;;3.80;3.40;;;29.30;81.20;;;;;;4999083;28;20472;-64
2023/09/15 11:56:44;;;;;;;5.93;3.90;;;29.10;79.10;;;;;;4996307;28;20555;-64
2023/09/15 11:59:13;;;;;;;3.37;3.07;;;28.60;78.20;;;;;;4990864;28;20449;-65
2023/09/15 12:01:40;;;;;;;4.17;3.70;;;28.20;79.00;;;;;;4985656;28;20466;-65
2023/09/15 12:04:09;;;;;;;8.60;4.10;;;28.40;85.60;;;;;;4985407;28;20449;-66
2023/09/15 12:06:36;;;;;;;5.23;3.63;;;28.80;84.60;;;;;;4991390;28;20893;-65
2023/09/15 12:09:04;;;;;;;4.40;3.17;;;29.10;81.60;;;;;;4988535;28;20534;-64
2023/09/15 12:11:31;;;;;;;5.83;3.80;;;29.50;83.10;;;;;;4992468;28;20484;-65
2023/09/15 12:14:06;;;;;;;4.80;3.40;;;29.90;82.30;;;;;;4980810;28;20449;-65
2023/09/15 12:16:34;;;;;;;7.53;3.50;;;30.30;83.30;;;;;;5010954;28;20524;-65
2023/09/15 12:19:01;;;;;;;3.57;3.27;;;30.50;77.40;;;;;;4978536;28;20698;-65
2023/09/15 12:21:29;;;;;;;4.50;3.67;;;30.50;80.80;;;;;;4986416;28;20474;-65
2023/09/15 12:24:08;;;;;;;3.53;3.20;;;30.50;78.50;;;;;;5004301;28;21078;-67
2023/09/15 12:26:36;;;;;;;3.63;3.30;;;30.40;78.90;;;;;;4996829;28;20476;-67
2023/09/15 12:29:03;;;;;;;4.00;3.67;;;30.60;81.20;;;;;;4977811;28;20882;-68
2023/09/15 12:31:30;;;;;;;3.47;3.17;;;30.70;80.10;;;;;;4986502;28;20459;-68
2023/09/15 12:33:57;;;;;;;3.80;3.40;;;30.70;81.10;;;;;;4995622;28;20474;-67
2023/09/15 12:36:25;;;;;;;3.60;3.30;;;30.40;75.80;;;;;;4976642;28;20452;-67
2023/09/15 12:38:53;;;;;;;3.80;3.20;;;30.20;79.20;;;;;;4985187;28;20483;-68
2023/09/15 12:41:20;;;;;;;4.00;3.40;;;30.00;78.50;;;;;;4987592;28;20452;-67
2023/09/15 12:43:46;;;;;;;4.30;3.53;;;30.00;80.50;;;;;;4992503;28;21181;-67
2023/09/15 12:46:13;;;;;;;3.43;2.57;;;30.10;79.80;;;;;;4992655;28;20835;-67
2023/09/15 12:48:40;;;;;;;4.40;3.93;;;29.80;75.90;;;;;;4980479;28;20502;-67